sensor_id;sensor_type;location;lat;lon;timestamp;P1;durP1;ratioP1;P2;durP2;ratioP2
82711;SDS011;72433;41.992;21.438;2023-12-07T00:01:57;55.47;;;30.63;;
82711;SDS011;72433;41.992;21.438;2023-12-07T00:04:23;53.95;;;28.60;;
82711;SDS011;72433;41.992;21.438;2023-12-07T00:06:49;50.78;;;29.38;;
82711;SDS011;72433;41.992;21.438;2023-12-07T00:09:15;55.75;;;29.33;;
82711;SDS011;72433;41.992;21.438;2023-12-07T00:11:41;56.75;;;29.88;;
82711;SDS011;72433;41.992;21.438;2023-12-07T00:14:07;56.38;;;32.85;;
82711;SDS011;72433;41.992;21.438;2023-12-07T00:16:33;58.20;;;31.40;;
82711;SDS011;72433;41.992;21.438;2023-12-07T00:19:00;54.45;;;30.65;;
82711;SDS011;72433;41.992;21.438;2023-12-07T00:21:26;63.55;;;30.40;;
82711;SDS011;72433;41.992;21.438;2023-12-07T00:23:52;59.03;;;31.08;;
82711;SDS011;72433;41.992;21.438;2023-12-07T00:26:18;54.97;;;31.63;;
82711;SDS011;72433;41.992;21.438;2023-12-07T00:28:44;56.03;;;30.02;;
82711;SDS011;72433;41.992;21.438;2023-12-07T00:31:10;51.67;;;31.10;;
82711;SDS011;72433;41.992;21.438;2023-12-07T00:33:36;48.45;;;28.88;;
82711;SDS011;72433;41.992;21.438;2023-12-07T00:36:03;53.65;;;30.83;;
82711;SDS011;72433;41.992;21.438;2023-12-07T00:38:29;57.67;;;30.23;;
82711;SDS011;72433;41.992;21.438;2023-12-07T00:40:57;60.40;;;31.92;;
82711;SDS011;72433;41.992;21.438;2023-12-07T00:43:23;61.67;;;33.60;;
82711;SDS011;72433;41.992;21.438;2023-12-07T00:45:49;61.22;;;33.75;;
82711;SDS011;72433;41.992;21.438;2023-12-07T00:48:16;62.47;;;34.10;;
82711;SDS011;72433;41.992;21.438;2023-12-07T00:50:42;66.05;;;33.97;;
82711;SDS011;72433;41.992;21.438;2023-12-07T00:53:08;51.00;;;28.58;;
82711;SDS011;72433;41.992;21.438;2023-12-07T00:55:34;52.08;;;30.02;;
82711;SDS011;72433;41.992;21.438;2023-12-07T00:58:00;52.63;;;29.73;;
82711;SDS011;72433;41.992;21.438;2023-12-07T01:00:26;54.08;;;29.15;;
82711;SDS011;72433;41.992;21.438;2023-12-07T01:02:53;49.47;;;27.08;;
82711;SDS011;72433;41.992;21.438;2023-12-07T01:05:19;48.22;;;27.85;;
82711;SDS011;72433;41.992;21.438;2023-12-07T01:07:45;51.47;;;27.67;;
82711;SDS011;72433;41.992;21.438;2023-12-07T01:10:11;47.30;;;27.20;;
82711;SDS011;72433;41.992;21.438;2023-12-07T01:12:37;49.90;;;27.17;;
82711;SDS011;72433;41.992;21.438;2023-12-07T01:15:03;50.88;;;28.08;;
82711;SDS011;72433;41.992;21.438;2023-12-07T01:17:29;48.63;;;27.20;;
82711;SDS011;72433;41.992;21.438;2023-12-07T01:19:56;48.45;;;28.42;;
82711;SDS011;72433;41.992;21.438;2023-12-07T01:22:22;57.60;;;30.10;;
82711;SDS011;72433;41.992;21.438;2023-12-07T01:24:48;51.45;;;28.50;;
82711;SDS011;72433;41.992;21.438;2023-12-07T01:27:14;51.35;;;28.95;;
82711;SDS011;72433;41.992;21.438;2023-12-07T01:29:41;52.20;;;29.63;;
82711;SDS011;72433;41.992;21.438;2023-12-07T01:32:07;52.13;;;28.52;;
82711;SDS011;72433;41.992;21.438;2023-12-07T01:34:33;49.90;;;26.98;;
82711;SDS011;72433;41.992;21.438;2023-12-07T01:36:59;54.65;;;28.35;;
82711;SDS011;72433;41.992;21.438;2023-12-07T01:39:26;51.00;;;29.40;;
82711;SDS011;72433;41.992;21.438;2023-12-07T01:41:52;49.83;;;28.33;;
82711;SDS011;72433;41.992;21.438;2023-12-07T01:44:18;51.20;;;28.48;;
82711;SDS011;72433;41.992;21.438;2023-12-07T01:46:45;56.08;;;30.00;;
82711;SDS011;72433;41.992;21.438;2023-12-07T01:49:11;51.10;;;29.63;;
82711;SDS011;72433;41.992;21.438;2023-12-07T01:51:37;55.05;;;31.27;;
82711;SDS011;72433;41.992;21.438;2023-12-07T01:54:03;55.78;;;31.85;;
82711;SDS011;72433;41.992;21.438;2023-12-07T01:56:30;53.03;;;30.80;;
82711;SDS011;72433;41.992;21.438;2023-12-07T01:58:56;59.85;;;31.38;;
82711;SDS011;72433;41.992;21.438;2023-12-07T02:01:23;59.15;;;33.28;;
82711;SDS011;72433;41.992;21.438;2023-12-07T02:03:49;57.38;;;32.42;;
82711;SDS011;72433;41.992;21.438;2023-12-07T02:06:15;57.78;;;31.92;;
82711;SDS011;72433;41.992;21.438;2023-12-07T02:08:43;60.53;;;32.72;;
82711;SDS011;72433;41.992;21.438;2023-12-07T02:11:09;62.63;;;31.80;;
82711;SDS011;72433;41.992;21.438;2023-12-07T02:13:38;60.00;;;32.88;;
82711;SDS011;72433;41.992;21.438;2023-12-07T02:16:07;62.75;;;33.72;;
82711;SDS011;72433;41.992;21.438;2023-12-07T02:18:38;62.13;;;34.38;;
82711;SDS011;72433;41.992;21.438;2023-12-07T02:23:32;60.20;;;31.88;;
82711;SDS011;72433;41.992;21.438;2023-12-07T02:29:02;55.97;;;33.63;;
82711;SDS011;72433;41.992;21.438;2023-12-07T02:31:28;57.60;;;33.20;;
82711;SDS011;72433;41.992;21.438;2023-12-07T02:33:54;59.17;;;34.00;;
82711;SDS011;72433;41.992;21.438;2023-12-07T02:36:22;55.38;;;32.58;;
82711;SDS011;72433;41.992;21.438;2023-12-07T02:38:50;60.80;;;33.55;;
82711;SDS011;72433;41.992;21.438;2023-12-07T02:41:18;56.03;;;34.65;;
82711;SDS011;72433;41.992;21.438;2023-12-07T02:43:44;60.67;;;34.33;;
82711;SDS011;72433;41.992;21.438;2023-12-07T02:46:10;57.35;;;32.53;;
82711;SDS011;72433;41.992;21.438;2023-12-07T02:48:36;57.33;;;34.17;;
82711;SDS011;72433;41.992;21.438;2023-12-07T02:51:02;54.13;;;31.05;;
82711;SDS011;72433;41.992;21.438;2023-12-07T02:53:29;49.50;;;28.70;;
82711;SDS011;72433;41.992;21.438;2023-12-07T02:55:55;51.05;;;30.25;;
82711;SDS011;72433;41.992;21.438;2023-12-07T02:58:21;43.70;;;25.23;;
82711;SDS011;72433;41.992;21.438;2023-12-07T03:00:47;40.08;;;23.45;;
82711;SDS011;72433;41.992;21.438;2023-12-07T03:03:13;34.85;;;21.08;;
82711;SDS011;72433;41.992;21.438;2023-12-07T03:05:39;39.22;;;23.52;;
82711;SDS011;72433;41.992;21.438;2023-12-07T03:08:05;36.38;;;22.98;;
82711;SDS011;72433;41.992;21.438;2023-12-07T03:10:31;42.78;;;24.17;;
82711;SDS011;72433;41.992;21.438;2023-12-07T03:12:57;36.45;;;22.75;;
82711;SDS011;72433;41.992;21.438;2023-12-07T03:15:23;37.60;;;23.33;;
82711;SDS011;72433;41.992;21.438;2023-12-07T03:17:50;51.33;;;28.85;;
82711;SDS011;72433;41.992;21.438;2023-12-07T03:20:16;50.05;;;30.00;;
82711;SDS011;72433;41.992;21.438;2023-12-07T03:22:42;54.65;;;33.22;;
82711;SDS011;72433;41.992;21.438;2023-12-07T03:25:08;58.78;;;32.78;;
82711;SDS011;72433;41.992;21.438;2023-12-07T03:27:34;61.90;;;33.75;;
82711;SDS011;72433;41.992;21.438;2023-12-07T03:30:00;56.42;;;33.50;;
82711;SDS011;72433;41.992;21.438;2023-12-07T03:32:27;59.80;;;34.40;;
82711;SDS011;72433;41.992;21.438;2023-12-07T03:34:53;67.05;;;36.50;;
82711;SDS011;72433;41.992;21.438;2023-12-07T03:37:19;67.43;;;36.03;;
82711;SDS011;72433;41.992;21.438;2023-12-07T03:39:45;58.22;;;35.15;;
82711;SDS011;72433;41.992;21.438;2023-12-07T03:42:11;57.90;;;33.63;;
82711;SDS011;72433;41.992;21.438;2023-12-07T03:44:37;56.25;;;31.55;;
82711;SDS011;72433;41.992;21.438;2023-12-07T03:47:04;54.17;;;33.58;;
82711;SDS011;72433;41.992;21.438;2023-12-07T03:49:30;53.15;;;30.80;;
82711;SDS011;72433;41.992;21.438;2023-12-07T03:51:56;50.75;;;29.85;;
82711;SDS011;72433;41.992;21.438;2023-12-07T03:54:22;49.45;;;29.65;;
82711;SDS011;72433;41.992;21.438;2023-12-07T03:56:48;53.33;;;30.05;;
82711;SDS011;72433;41.992;21.438;2023-12-07T03:59:15;49.92;;;29.08;;
82711;SDS011;72433;41.992;21.438;2023-12-07T04:01:41;50.10;;;27.50;;
82711;SDS011;72433;41.992;21.438;2023-12-07T04:04:07;47.35;;;27.25;;
82711;SDS011;72433;41.992;21.438;2023-12-07T04:06:33;50.78;;;27.58;;
82711;SDS011;72433;41.992;21.438;2023-12-07T04:08:59;47.13;;;26.88;;
82711;SDS011;72433;41.992;21.438;2023-12-07T04:11:25;48.60;;;27.33;;
82711;SDS011;72433;41.992;21.438;2023-12-07T04:13:52;50.50;;;28.25;;
82711;SDS011;72433;41.992;21.438;2023-12-07T04:16:18;47.38;;;27.15;;
82711;SDS011;72433;41.992;21.438;2023-12-07T04:18:44;48.85;;;26.80;;
82711;SDS011;72433;41.992;21.438;2023-12-07T04:21:10;47.45;;;27.23;;
82711;SDS011;72433;41.992;21.438;2023-12-07T04:23:36;47.83;;;26.10;;
82711;SDS011;72433;41.992;21.438;2023-12-07T04:26:03;50.80;;;27.00;;
82711;SDS011;72433;41.992;21.438;2023-12-07T04:28:29;48.60;;;27.42;;
82711;SDS011;72433;41.992;21.438;2023-12-07T04:30:55;37.72;;;24.90;;
82711;SDS011;72433;41.992;21.438;2023-12-07T04:33:21;44.65;;;24.92;;
82711;SDS011;72433;41.992;21.438;2023-12-07T04:35:50;39.65;;;23.90;;
82711;SDS011;72433;41.992;21.438;2023-12-07T04:38:16;44.80;;;24.98;;
82711;SDS011;72433;41.992;21.438;2023-12-07T04:40:43;47.13;;;25.23;;
82711;SDS011;72433;41.992;21.438;2023-12-07T04:43:09;42.60;;;23.92;;
82711;SDS011;72433;41.992;21.438;2023-12-07T04:45:36;46.80;;;24.58;;
82711;SDS011;72433;41.992;21.438;2023-12-07T04:48:02;52.00;;;25.80;;
82711;SDS011;72433;41.992;21.438;2023-12-07T04:50:29;45.50;;;25.75;;
82711;SDS011;72433;41.992;21.438;2023-12-07T04:52:55;44.33;;;25.80;;
82711;SDS011;72433;41.992;21.438;2023-12-07T04:55:22;44.42;;;26.70;;
82711;SDS011;72433;41.992;21.438;2023-12-07T04:57:48;52.22;;;26.58;;
82711;SDS011;72433;41.992;21.438;2023-12-07T05:00:14;45.92;;;25.80;;
82711;SDS011;72433;41.992;21.438;2023-12-07T05:02:41;43.55;;;25.50;;
82711;SDS011;72433;41.992;21.438;2023-12-07T05:05:07;43.75;;;24.63;;
82711;SDS011;72433;41.992;21.438;2023-12-07T05:07:34;49.17;;;25.80;;
82711;SDS011;72433;41.992;21.438;2023-12-07T05:10:00;45.40;;;24.67;;
82711;SDS011;72433;41.992;21.438;2023-12-07T05:12:27;47.75;;;25.52;;
82711;SDS011;72433;41.992;21.438;2023-12-07T05:14:53;45.63;;;25.52;;
82711;SDS011;72433;41.992;21.438;2023-12-07T05:17:19;43.00;;;25.02;;
82711;SDS011;72433;41.992;21.438;2023-12-07T05:19:45;46.45;;;27.05;;
82711;SDS011;72433;41.992;21.438;2023-12-07T05:22:11;47.78;;;27.17;;
82711;SDS011;72433;41.992;21.438;2023-12-07T05:24:38;46.33;;;26.02;;
82711;SDS011;72433;41.992;21.438;2023-12-07T05:27:04;44.70;;;26.13;;
82711;SDS011;72433;41.992;21.438;2023-12-07T05:29:30;49.33;;;27.02;;
82711;SDS011;72433;41.992;21.438;2023-12-07T05:31:56;48.92;;;26.83;;
82711;SDS011;72433;41.992;21.438;2023-12-07T05:34:22;46.45;;;24.55;;
82711;SDS011;72433;41.992;21.438;2023-12-07T05:36:49;37.92;;;20.63;;
82711;SDS011;72433;41.992;21.438;2023-12-07T05:39:15;38.95;;;19.88;;
82711;SDS011;72433;41.992;21.438;2023-12-07T05:41:42;32.03;;;17.92;;
82711;SDS011;72433;41.992;21.438;2023-12-07T05:44:08;34.95;;;18.60;;
82711;SDS011;72433;41.992;21.438;2023-12-07T05:46:37;36.28;;;17.35;;
82711;SDS011;72433;41.992;21.438;2023-12-07T05:49:09;27.95;;;15.55;;
82711;SDS011;72433;41.992;21.438;2023-12-07T05:51:35;30.83;;;15.25;;
82711;SDS011;72433;41.992;21.438;2023-12-07T05:54:01;27.98;;;16.45;;
82711;SDS011;72433;41.992;21.438;2023-12-07T05:56:30;32.97;;;15.35;;
82711;SDS011;72433;41.992;21.438;2023-12-07T05:58:56;27.17;;;15.32;;
82711;SDS011;72433;41.992;21.438;2023-12-07T06:01:22;32.45;;;16.58;;
82711;SDS011;72433;41.992;21.438;2023-12-07T06:03:55;29.60;;;15.10;;
82711;SDS011;72433;41.992;21.438;2023-12-07T06:06:22;26.27;;;13.98;;
82711;SDS011;72433;41.992;21.438;2023-12-07T06:08:48;28.58;;;14.00;;
82711;SDS011;72433;41.992;21.438;2023-12-07T06:11:14;26.70;;;12.65;;
82711;SDS011;72433;41.992;21.438;2023-12-07T06:13:40;27.67;;;12.80;;
82711;SDS011;72433;41.992;21.438;2023-12-07T06:16:06;27.38;;;14.38;;
82711;SDS011;72433;41.992;21.438;2023-12-07T06:18:32;25.52;;;12.57;;
82711;SDS011;72433;41.992;21.438;2023-12-07T06:21:08;24.60;;;11.10;;
82711;SDS011;72433;41.992;21.438;2023-12-07T06:23:34;20.75;;;10.23;;
82711;SDS011;72433;41.992;21.438;2023-12-07T06:26:03;28.48;;;12.23;;
82711;SDS011;72433;41.992;21.438;2023-12-07T06:28:48;24.88;;;11.63;;
82711;SDS011;72433;41.992;21.438;2023-12-07T06:31:30;23.05;;;12.48;;
82711;SDS011;72433;41.992;21.438;2023-12-07T06:45:15;22.48;;;11.55;;
82711;SDS011;72433;41.992;21.438;2023-12-07T06:48:09;19.40;;;10.50;;
82711;SDS011;72433;41.992;21.438;2023-12-07T06:50:37;20.23;;;11.32;;
82711;SDS011;72433;41.992;21.438;2023-12-07T06:56:17;16.65;;;8.48;;
82711;SDS011;72433;41.992;21.438;2023-12-07T06:58:53;12.07;;;5.90;;
82711;SDS011;72433;41.992;21.438;2023-12-07T07:01:19;12.18;;;7.03;;
82711;SDS011;72433;41.992;21.438;2023-12-07T07:04:16;9.63;;;6.38;;
82711;SDS011;72433;41.992;21.438;2023-12-07T07:07:02;14.02;;;7.03;;
82711;SDS011;72433;41.992;21.438;2023-12-07T07:09:29;12.15;;;6.40;;
82711;SDS011;72433;41.992;21.438;2023-12-07T07:12:01;9.73;;;5.25;;
82711;SDS011;72433;41.992;21.438;2023-12-07T07:14:45;7.05;;;5.07;;
82711;SDS011;72433;41.992;21.438;2023-12-07T07:21:19;8.43;;;5.45;;
82711;SDS011;72433;41.992;21.438;2023-12-07T07:23:29;7.55;;;4.43;;
82711;SDS011;72433;41.992;21.438;2023-12-07T07:26:01;7.30;;;4.50;;
82711;SDS011;72433;41.992;21.438;2023-12-07T07:31:32;6.70;;;4.93;;
82711;SDS011;72433;41.992;21.438;2023-12-07T07:34:01;7.20;;;4.47;;
82711;SDS011;72433;41.992;21.438;2023-12-07T07:36:27;9.75;;;4.95;;
82711;SDS011;72433;41.992;21.438;2023-12-07T07:38:57;12.38;;;5.65;;
82711;SDS011;72433;41.992;21.438;2023-12-07T07:41:23;7.22;;;4.75;;
82711;SDS011;72433;41.992;21.438;2023-12-07T07:43:49;7.10;;;4.60;;
82711;SDS011;72433;41.992;21.438;2023-12-07T07:46:24;7.85;;;4.50;;
82711;SDS011;72433;41.992;21.438;2023-12-07T07:48:53;9.07;;;4.50;;
82711;SDS011;72433;41.992;21.438;2023-12-07T07:54:34;10.88;;;4.65;;
82711;SDS011;72433;41.992;21.438;2023-12-07T07:57:19;7.82;;;4.60;;
82711;SDS011;72433;41.992;21.438;2023-12-07T08:00:21;7.97;;;4.13;;
82711;SDS011;72433;41.992;21.438;2023-12-07T08:02:53;8.35;;;4.50;;
82711;SDS011;72433;41.992;21.438;2023-12-07T08:05:22;6.70;;;4.70;;
82711;SDS011;72433;41.992;21.438;2023-12-07T08:07:48;8.02;;;5.03;;
82711;SDS011;72433;41.992;21.438;2023-12-07T08:10:15;6.03;;;4.13;;
82711;SDS011;72433;41.992;21.438;2023-12-07T08:12:41;6.53;;;3.78;;
82711;SDS011;72433;41.992;21.438;2023-12-07T08:15:08;6.63;;;4.78;;
82711;SDS011;72433;41.992;21.438;2023-12-07T08:17:42;8.50;;;4.43;;
82711;SDS011;72433;41.992;21.438;2023-12-07T08:20:11;7.00;;;4.03;;
82711;SDS011;72433;41.992;21.438;2023-12-07T08:22:40;6.13;;;4.40;;
82711;SDS011;72433;41.992;21.438;2023-12-07T08:25:27;6.75;;;5.10;;
82711;SDS011;72433;41.992;21.438;2023-12-07T08:31:09;6.55;;;3.88;;
82711;SDS011;72433;41.992;21.438;2023-12-07T08:33:41;6.25;;;3.60;;
82711;SDS011;72433;41.992;21.438;2023-12-07T08:36:10;5.82;;;3.95;;
82711;SDS011;72433;41.992;21.438;2023-12-07T08:38:36;7.20;;;4.10;;
82711;SDS011;72433;41.992;21.438;2023-12-07T08:41:02;6.90;;;3.92;;
82711;SDS011;72433;41.992;21.438;2023-12-07T08:43:29;5.10;;;3.28;;
82711;SDS011;72433;41.992;21.438;2023-12-07T08:45:56;5.10;;;2.95;;
82711;SDS011;72433;41.992;21.438;2023-12-07T08:48:33;5.60;;;4.07;;
82711;SDS011;72433;41.992;21.438;2023-12-07T08:51:02;8.45;;;3.67;;
82711;SDS011;72433;41.992;21.438;2023-12-07T08:53:28;7.20;;;3.67;;
82711;SDS011;72433;41.992;21.438;2023-12-07T08:55:54;6.93;;;3.40;;
82711;SDS011;72433;41.992;21.438;2023-12-07T08:58:29;4.40;;;3.58;;
82711;SDS011;72433;41.992;21.438;2023-12-07T09:00:57;5.50;;;3.78;;
82711;SDS011;72433;41.992;21.438;2023-12-07T09:03:41;6.70;;;4.18;;
82711;SDS011;72433;41.992;21.438;2023-12-07T09:12:25;7.53;;;4.45;;
82711;SDS011;72433;41.992;21.438;2023-12-07T09:24:33;4.32;;;2.88;;
82711;SDS011;72433;41.992;21.438;2023-12-07T09:33:49;5.65;;;3.47;;
82711;SDS011;72433;41.992;21.438;2023-12-07T09:39:59;3.70;;;2.35;;
82711;SDS011;72433;41.992;21.438;2023-12-07T09:49:01;3.83;;;2.95;;
82711;SDS011;72433;41.992;21.438;2023-12-07T09:51:27;7.32;;;4.93;;
82711;SDS011;72433;41.992;21.438;2023-12-07T09:53:57;6.47;;;4.50;;
82711;SDS011;72433;41.992;21.438;2023-12-07T09:56:27;7.05;;;4.43;;
82711;SDS011;72433;41.992;21.438;2023-12-07T09:58:55;5.97;;;4.07;;
82711;SDS011;72433;41.992;21.438;2023-12-07T10:01:28;5.75;;;4.22;;
82711;SDS011;72433;41.992;21.438;2023-12-07T10:04:19;6.22;;;3.95;;
82711;SDS011;72433;41.992;21.438;2023-12-07T10:06:48;6.38;;;4.47;;
82711;SDS011;72433;41.992;21.438;2023-12-07T10:12:43;5.88;;;3.90;;
82711;SDS011;72433;41.992;21.438;2023-12-07T10:15:18;5.13;;;3.88;;
82711;SDS011;72433;41.992;21.438;2023-12-07T10:17:59;6.47;;;3.95;;
82711;SDS011;72433;41.992;21.438;2023-12-07T10:20:28;7.70;;;4.90;;
82711;SDS011;72433;41.992;21.438;2023-12-07T10:25:31;7.47;;;4.45;;
82711;SDS011;72433;41.992;21.438;2023-12-07T10:27:57;6.82;;;4.75;;
82711;SDS011;72433;41.992;21.438;2023-12-07T10:30:26;6.25;;;4.40;;
82711;SDS011;72433;41.992;21.438;2023-12-07T10:32:58;8.98;;;5.30;;
82711;SDS011;72433;41.992;21.438;2023-12-07T10:38:51;5.55;;;3.95;;
82711;SDS011;72433;41.992;21.438;2023-12-07T10:41:18;4.72;;;3.35;;
82711;SDS011;72433;41.992;21.438;2023-12-07T10:43:52;5.43;;;3.92;;
82711;SDS011;72433;41.992;21.438;2023-12-07T10:46:22;6.47;;;4.32;;
82711;SDS011;72433;41.992;21.438;2023-12-07T10:48:48;7.38;;;4.07;;
82711;SDS011;72433;41.992;21.438;2023-12-07T10:51:19;8.18;;;4.97;;
82711;SDS011;72433;41.992;21.438;2023-12-07T10:53:49;6.85;;;3.90;;
82711;SDS011;72433;41.992;21.438;2023-12-07T10:56:20;5.13;;;3.25;;
82711;SDS011;72433;41.992;21.438;2023-12-07T10:58:51;5.63;;;3.92;;
82711;SDS011;72433;41.992;21.438;2023-12-07T11:01:21;6.22;;;4.55;;
82711;SDS011;72433;41.992;21.438;2023-12-07T11:03:51;5.22;;;4.05;;
82711;SDS011;72433;41.992;21.438;2023-12-07T11:06:21;4.35;;;2.63;;
82711;SDS011;72433;41.992;21.438;2023-12-07T11:08:50;5.05;;;3.20;;
82711;SDS011;72433;41.992;21.438;2023-12-07T11:14:03;4.13;;;2.95;;
82711;SDS011;72433;41.992;21.438;2023-12-07T11:16:37;3.85;;;2.53;;
82711;SDS011;72433;41.992;21.438;2023-12-07T11:21:48;4.50;;;3.15;;
82711;SDS011;72433;41.992;21.438;2023-12-07T11:24:16;6.45;;;3.25;;
82711;SDS011;72433;41.992;21.438;2023-12-07T11:26:42;6.30;;;3.50;;
82711;SDS011;72433;41.992;21.438;2023-12-07T11:29:09;5.47;;;3.30;;
82711;SDS011;72433;41.992;21.438;2023-12-07T11:31:36;5.07;;;3.70;;
82711;SDS011;72433;41.992;21.438;2023-12-07T11:34:06;7.15;;;3.95;;
82711;SDS011;72433;41.992;21.438;2023-12-07T11:36:39;5.43;;;4.05;;
82711;SDS011;72433;41.992;21.438;2023-12-07T11:41:45;4.75;;;3.30;;
82711;SDS011;72433;41.992;21.438;2023-12-07T11:44:15;4.70;;;3.55;;
82711;SDS011;72433;41.992;21.438;2023-12-07T11:46:43;6.95;;;4.20;;
82711;SDS011;72433;41.992;21.438;2023-12-07T11:49:09;7.68;;;4.20;;
82711;SDS011;72433;41.992;21.438;2023-12-07T11:51:36;5.18;;;3.95;;
82711;SDS011;72433;41.992;21.438;2023-12-07T11:54:03;4.50;;;3.72;;
82711;SDS011;72433;41.992;21.438;2023-12-07T11:56:30;5.90;;;4.07;;
82711;SDS011;72433;41.992;21.438;2023-12-07T11:58:56;6.68;;;4.75;;
82711;SDS011;72433;41.992;21.438;2023-12-07T12:01:24;6.38;;;4.47;;
82711;SDS011;72433;41.992;21.438;2023-12-07T12:03:53;6.18;;;4.53;;
82711;SDS011;72433;41.992;21.438;2023-12-07T12:06:19;7.72;;;5.07;;
82711;SDS011;72433;41.992;21.438;2023-12-07T12:08:46;8.50;;;4.97;;
82711;SDS011;72433;41.992;21.438;2023-12-07T12:11:14;7.70;;;5.10;;
82711;SDS011;72433;41.992;21.438;2023-12-07T12:13:40;9.13;;;5.88;;
82711;SDS011;72433;41.992;21.438;2023-12-07T12:16:07;8.70;;;5.85;;
82711;SDS011;72433;41.992;21.438;2023-12-07T12:18:33;10.43;;;6.82;;
82711;SDS011;72433;41.992;21.438;2023-12-07T12:20:59;10.00;;;6.10;;
82711;SDS011;72433;41.992;21.438;2023-12-07T12:23:26;10.05;;;6.90;;
82711;SDS011;72433;41.992;21.438;2023-12-07T12:25:55;15.95;;;10.75;;
82711;SDS011;72433;41.992;21.438;2023-12-07T12:28:21;17.02;;;11.40;;
82711;SDS011;72433;41.992;21.438;2023-12-07T12:30:48;19.20;;;12.18;;
82711;SDS011;72433;41.992;21.438;2023-12-07T12:33:15;14.65;;;10.40;;
82711;SDS011;72433;41.992;21.438;2023-12-07T12:35:42;13.02;;;9.20;;
82711;SDS011;72433;41.992;21.438;2023-12-07T12:38:09;12.95;;;7.40;;
82711;SDS011;72433;41.992;21.438;2023-12-07T12:40:39;8.10;;;5.72;;
82711;SDS011;72433;41.992;21.438;2023-12-07T12:43:06;9.75;;;5.90;;
82711;SDS011;72433;41.992;21.438;2023-12-07T12:45:33;8.32;;;4.82;;
82711;SDS011;72433;41.992;21.438;2023-12-07T12:47:59;7.40;;;3.90;;
82711;SDS011;72433;41.992;21.438;2023-12-07T12:50:32;8.05;;;4.68;;
82711;SDS011;72433;41.992;21.438;2023-12-07T12:52:59;10.55;;;5.40;;
82711;SDS011;72433;41.992;21.438;2023-12-07T12:55:26;8.52;;;5.00;;
82711;SDS011;72433;41.992;21.438;2023-12-07T12:57:56;8.45;;;4.35;;
82711;SDS011;72433;41.992;21.438;2023-12-07T13:00:24;7.25;;;4.97;;
82711;SDS011;72433;41.992;21.438;2023-12-07T13:03:06;8.82;;;5.60;;
82711;SDS011;72433;41.992;21.438;2023-12-07T13:08:43;5.03;;;3.55;;
82711;SDS011;72433;41.992;21.438;2023-12-07T13:11:14;5.90;;;3.40;;
82711;SDS011;72433;41.992;21.438;2023-12-07T13:13:41;6.05;;;4.10;;
82711;SDS011;72433;41.992;21.438;2023-12-07T13:16:10;6.70;;;3.83;;
82711;SDS011;72433;41.992;21.438;2023-12-07T13:18:45;6.93;;;4.30;;
82711;SDS011;72433;41.992;21.438;2023-12-07T13:21:13;7.82;;;4.03;;
82711;SDS011;72433;41.992;21.438;2023-12-07T13:23:43;7.65;;;3.88;;
82711;SDS011;72433;41.992;21.438;2023-12-07T13:26:13;6.20;;;3.95;;
82711;SDS011;72433;41.992;21.438;2023-12-07T13:28:41;6.18;;;4.10;;
82711;SDS011;72433;41.992;21.438;2023-12-07T13:34:08;6.18;;;4.10;;
82711;SDS011;72433;41.992;21.438;2023-12-07T13:36:36;4.80;;;3.63;;
82711;SDS011;72433;41.992;21.438;2023-12-07T13:39:13;7.13;;;4.75;;
82711;SDS011;72433;41.992;21.438;2023-12-07T13:41:39;5.50;;;3.90;;
82711;SDS011;72433;41.992;21.438;2023-12-07T13:44:08;8.25;;;4.30;;
82711;SDS011;72433;41.992;21.438;2023-12-07T13:46:34;6.80;;;4.18;;
82711;SDS011;72433;41.992;21.438;2023-12-07T13:49:02;9.75;;;5.75;;
82711;SDS011;72433;41.992;21.438;2023-12-07T13:51:31;8.02;;;5.75;;
82711;SDS011;72433;41.992;21.438;2023-12-07T13:53:59;6.88;;;4.93;;
82711;SDS011;72433;41.992;21.438;2023-12-07T13:56:25;6.88;;;5.50;;
82711;SDS011;72433;41.992;21.438;2023-12-07T13:58:51;7.20;;;4.68;;
82711;SDS011;72433;41.992;21.438;2023-12-07T14:01:21;7.13;;;4.85;;
82711;SDS011;72433;41.992;21.438;2023-12-07T14:06:27;9.45;;;5.60;;
82711;SDS011;72433;41.992;21.438;2023-12-07T14:08:53;7.68;;;5.40;;
82711;SDS011;72433;41.992;21.438;2023-12-07T16:29:40;9.15;;;6.18;;
82711;SDS011;72433;41.992;21.438;2023-12-07T16:32:09;9.65;;;6.90;;
82711;SDS011;72433;41.992;21.438;2023-12-07T16:34:35;8.02;;;5.25;;
82711;SDS011;72433;41.992;21.438;2023-12-07T16:37:13;9.65;;;6.57;;
82711;SDS011;72433;41.992;21.438;2023-12-07T16:39:43;10.35;;;6.35;;
82711;SDS011;72433;41.992;21.438;2023-12-07T16:42:12;10.40;;;6.75;;
82711;SDS011;72433;41.992;21.438;2023-12-07T16:44:39;9.07;;;7.25;;
82711;SDS011;72433;41.992;21.438;2023-12-07T16:47:05;10.48;;;6.63;;
82711;SDS011;72433;41.992;21.438;2023-12-07T16:49:38;12.85;;;7.65;;
82711;SDS011;72433;41.992;21.438;2023-12-07T16:58:08;11.85;;;7.43;;
82711;SDS011;72433;41.992;21.438;2023-12-07T17:00:35;9.55;;;6.97;;
82711;SDS011;72433;41.992;21.438;2023-12-07T17:03:04;11.32;;;6.80;;
82711;SDS011;72433;41.992;21.438;2023-12-07T17:05:31;10.30;;;6.78;;
82711;SDS011;72433;41.992;21.438;2023-12-07T17:07:57;11.40;;;7.32;;
82711;SDS011;72433;41.992;21.438;2023-12-07T17:10:23;9.65;;;7.05;;
82711;SDS011;72433;41.992;21.438;2023-12-07T17:12:50;9.57;;;6.47;;
82711;SDS011;72433;41.992;21.438;2023-12-07T17:15:16;10.70;;;7.30;;
82711;SDS011;72433;41.992;21.438;2023-12-07T17:17:42;9.73;;;6.50;;
82711;SDS011;72433;41.992;21.438;2023-12-07T17:20:08;10.02;;;6.65;;
82711;SDS011;72433;41.992;21.438;2023-12-07T17:22:35;13.15;;;7.43;;
82711;SDS011;72433;41.992;21.438;2023-12-07T17:25:04;10.35;;;6.45;;
82711;SDS011;72433;41.992;21.438;2023-12-07T17:27:31;10.30;;;6.85;;
82711;SDS011;72433;41.992;21.438;2023-12-07T17:29:58;9.98;;;7.00;;
82711;SDS011;72433;41.992;21.438;2023-12-07T17:32:24;8.57;;;6.53;;
82711;SDS011;72433;41.992;21.438;2023-12-07T17:34:50;9.50;;;6.10;;
82711;SDS011;72433;41.992;21.438;2023-12-07T17:37:16;8.45;;;6.50;;
82711;SDS011;72433;41.992;21.438;2023-12-07T17:39:44;9.13;;;5.93;;
82711;SDS011;72433;41.992;21.438;2023-12-07T17:42:10;10.32;;;6.22;;
82711;SDS011;72433;41.992;21.438;2023-12-07T17:44:36;9.05;;;5.43;;
82711;SDS011;72433;41.992;21.438;2023-12-07T17:47:02;7.82;;;5.07;;
82711;SDS011;72433;41.992;21.438;2023-12-07T17:49:28;9.45;;;5.25;;
82711;SDS011;72433;41.992;21.438;2023-12-07T17:51:57;10.32;;;6.40;;
82711;SDS011;72433;41.992;21.438;2023-12-07T17:54:24;8.82;;;6.07;;
82711;SDS011;72433;41.992;21.438;2023-12-07T17:56:51;8.00;;;5.45;;
82711;SDS011;72433;41.992;21.438;2023-12-07T17:59:17;8.63;;;5.57;;
82711;SDS011;72433;41.992;21.438;2023-12-07T18:01:46;10.10;;;6.47;;
82711;SDS011;72433;41.992;21.438;2023-12-07T18:04:12;9.73;;;6.30;;
82711;SDS011;72433;41.992;21.438;2023-12-07T18:06:38;8.95;;;7.22;;
82711;SDS011;72433;41.992;21.438;2023-12-07T18:09:04;9.25;;;6.40;;
82711;SDS011;72433;41.992;21.438;2023-12-07T18:11:30;8.25;;;5.63;;
82711;SDS011;72433;41.992;21.438;2023-12-07T18:13:57;10.73;;;6.45;;
82711;SDS011;72433;41.992;21.438;2023-12-07T18:16:23;10.40;;;6.28;;
82711;SDS011;72433;41.992;21.438;2023-12-07T18:18:49;10.60;;;6.47;;
82711;SDS011;72433;41.992;21.438;2023-12-07T18:21:15;8.52;;;6.13;;
82711;SDS011;72433;41.992;21.438;2023-12-07T18:23:41;9.90;;;6.75;;